Melbourne International Airport
YMML : now visible

Aeroporto :











RITROVATECI SU...

 
LOGIN :

Iscrizione | Disclaimer

   EN    FR    IT 

 









Sommario :    VFR   VFR Marginale   IFR   IFR Intensivo   IFR Molto Intensivo
Visibilità : 
Base nubi : 
>= 8 km
>= 3000ft
5 / 8 km
1000 / 3000 ft
1500m / 5 km
500 / 1000 ft
800 / 1500m
200 / 500 ft
< 800m
< 200 ft
Simboli :   Temporali  Nebbia  Neve Forte  Precipitazioni Forti  Vento > 20 kt







- Altitudine del aeroporto : 434 ft
- Codice IATA : MEL


YMML - Melbourne International

ULTIMO METAR :
  • 190130Z 29006KT 9999 FEW028 13/04 Q1021 NOSIG

METARs OBSOLETI :
  • 190100Z 27008KT 9999 FEW027 13/05 Q1021
  • 190030Z 29007KT 9999 FEW025 12/06 Q1021 NOSIG
  • 190000Z 33007KT 9999 FEW025 11/07 Q1021
  • 182330Z 32007KT 9999 FEW020 10/06 Q1021 NOSIG
  • 182300Z 33008KT 9999 FEW004 09/06 Q1021

TAF TAF YMML
Valido dal 19 a 00 ore il 20 a 06 ore UTC


182304Z 1900/2006 34008KT 9999 FEW035
FM191100 01014KT 9999 FEW015 SCT035
BECMG 1916/1918 01018G30KT 9999 FEW015
FIR YMMM / Oceania



MetMap, La meteo Aeronautica in un colpo d'occhio ! - Copyright ORBIFLY Dicembre 2007 - Disclaimer

ORBIFLY MET'MAP TEAM :

Programmazione e sviluppo : Alexandra Zaïnal
Concezione e sviluppo : Baudouin d'Aumeries
Co-Programmazione e sviluppo : Marc-Olivier Méhu
Supporto tecnico e logistico : Manuel Goepfert
Aiuto per la traduzione : Arnaldo La Scala

Contatto : metmap@orbifly.com




FONTI E CREDITI :

   NOAA       Earth
Advisory